Terminal Aerodrome Forecast
Issued by NWS Knoxville/Tri Cities, TN

Home | Current Version | Previous Version | Text Only | Print | Product List | Glossary On
Versions: 1 2 3 4 5 6 7 8 9 10 11 12 13 14 15 16 17 18 19 20 21 22 23 24 25 26
000
FTUS44 KMRX 191039 AAA
TAFTRI
TAF AMD
KTRI 191039Z 1911/2006 16010KT 2SM RA BKN030 WS020/18040KT
     FM191700 19014KT 6SM -SHRA SCT030 BKN060
     FM192200 20010KT P6SM VCSH BKN020=

USA.gov is the U.S. government's official web portal to all federal, state and local government web resources and services.